Time;durP1;ratioP1;P1;durP2;ratioP2;P2;SDS_P1;SDS_P2;PMS_P1;PMS_P2;Temp;Humidity;BMP_temperature;BMP_pressure;BME280_temperature;BME280_humidity;BME280_pressure;Samples;Min_cycle;Max_cycle;Signal;HPM_P1;HPM_P2
2022/11/21 00:00:41;;;;;;;;;;;;;;;20.19;61.88;98227.66;2075049;28;20041;-73
2022/11/21 00:01:42;;;;;;;29.55;22.13;;;;;;;20.23;61.84;98214.59;2075106;28;20437;-73
2022/11/21 00:02:43;;;;;;;;;;;;;;;20.11;62.14;98216.38;2075714;28;20175;-72
2022/11/21 00:03:44;;;;;;;;;;;;;;;20.02;62.44;98202.38;2075588;28;20439;-72
2022/11/21 00:04:45;;;;;;;27.97;21.47;;;;;;;20.06;62.54;98204.41;2074758;28;19925;-73
2022/11/21 00:05:48;;;;;;;29.63;21.35;;;;;;;20.15;61.96;98213.00;2074175;28;20300;-73
2022/11/21 00:06:51;;;;;;;30.77;21.77;;;;;;;20.19;62.06;98208.00;2074537;28;20049;-73
2022/11/21 00:07:52;;;;;;;25.75;20.17;;;;;;;20.21;61.81;98206.72;2072723;28;20129;-73
2022/11/21 00:08:56;;;;;;;25.40;21.35;;;;;;;20.22;61.90;98200.28;2072658;28;20478;-73
2022/11/21 00:09:58;;;;;;;25.08;20.27;;;;;;;20.21;61.74;98206.72;2071857;28;20057;-73
2022/11/21 00:11:00;;;;;;;31.67;22.30;;;;;;;20.22;61.87;98204.84;2073794;28;20057;-73
2022/11/21 00:12:01;;;;;;;28.45;20.52;;;;;;;20.21;61.66;98197.81;2074397;28;20064;-73
2022/11/21 00:13:03;;;;;;;;;;;;;;;20.07;61.94;98199.84;2074020;28;20128;-73
2022/11/21 00:14:03;;;;;;;24.13;19.55;;;;;;;20.10;62.08;98194.00;2075041;28;20362;-73
2022/11/21 00:15:06;;;;;;;27.27;21.08;;;;;;;20.13;62.21;98190.88;2074363;28;20119;-73
2022/11/21 00:16:10;;;;;;;29.73;20.55;;;;;;;20.15;62.19;98186.09;2073594;28;20075;-73
2022/11/21 00:17:10;;;;;;;31.15;22.45;;;;;;;20.16;61.79;98184.22;2074240;28;20054;-73
2022/11/21 00:18:12;;;;;;;;;;;;;;;20.02;62.25;98180.84;2069704;28;20056;-73
2022/11/21 00:19:13;;;;;;;30.90;20.70;;;;;;;20.06;62.31;98179.38;2075017;28;20035;-74
2022/11/21 00:20:14;;;;;;;;;;;;;;;19.96;62.57;98182.56;2075940;28;20172;-73
2022/11/21 00:21:16;;;;;;;;;;;;;;;19.90;62.71;98188.03;2076442;28;19933;-73
2022/11/21 00:22:18;;;;;;;26.48;18.80;;;;;;;19.98;62.15;98175.09;2074161;28;19931;-73
2022/11/21 00:23:18;;;;;;;30.25;21.92;;;;;;;20.04;62.37;98173.38;2072049;28;20053;-73
2022/11/21 00:24:20;;;;;;;;;;;;;;;19.94;62.27;98179.25;2073526;28;20046;-73
2022/11/21 00:25:22;;;;;;;29.13;20.75;;;;;;;19.98;62.36;98163.50;2075261;28;19928;-73
2022/11/21 00:26:24;;;;;;;24.52;20.05;;;;;;;20.02;62.06;98170.06;2073558;28;20045;-73
2022/11/21 00:27:25;;;;;;;25.67;20.13;;;;;;;20.05;62.05;98164.25;2073748;28;20180;-73
2022/11/21 00:28:26;;;;;;;;;;;;;;;19.96;62.21;98162.91;2075888;28;20505;-72
2022/11/21 00:29:27;;;;;;;25.52;19.13;;;;;;;19.97;62.50;98165.34;2072985;28;20292;-73
2022/11/21 00:30:29;;;;;;;25.90;20.70;;;;;;;20.01;62.04;98157.66;2074827;28;20129;-72
2022/11/21 00:31:30;;;;;;;28.52;19.70;;;;;;;20.02;62.07;98157.44;2072465;28;20038;-73
2022/11/21 00:32:31;;;;;;;;;;;;;;;19.92;62.43;98159.84;2073887;28;20046;-72
2022/11/21 00:33:34;;;;;;;26.17;19.60;;;;;;;19.96;62.06;98154.81;2074167;28;20310;-73
2022/11/21 00:34:35;;;;;;;28.52;19.85;;;;;;;19.99;62.04;98157.06;2075189;28;20041;-73
2022/11/21 00:35:36;;;;;;;26.70;19.15;;;;;;;20.01;62.08;98153.09;2073812;28;20044;-73
2022/11/21 00:36:38;;;;;;;;;;;;;;;19.86;62.36;98153.47;2075354;28;20059;-73
2022/11/21 00:37:38;;;;;;;31.90;21.40;;;;;;;19.92;62.52;98159.84;2073880;28;19947;-73
2022/11/21 00:38:40;;;;;;;25.17;19.48;;;;;;;19.95;61.99;98148.63;2074905;28;20491;-73
2022/11/21 00:39:41;;;;;;;26.42;18.90;;;;;;;19.97;62.23;98145.69;2076799;28;20133;-73
2022/11/21 00:40:44;;;;;;;;;;;;;;;19.83;62.64;98140.44;2074993;28;20527;-73
2022/11/21 00:41:45;;;;;;;28.15;20.42;;;;;;;19.88;62.36;98147.88;2073050;28;19925;-73
2022/11/21 00:42:46;;;;;;;;;;;;;;;19.76;62.78;98133.50;2075541;28;20042;-73
2022/11/21 00:43:47;;;;;;;25.63;19.00;;;;;;;19.80;62.67;98135.50;2074389;28;19974;-73
2022/11/21 00:44:49;;;;;;;;;;;;;;;19.74;62.74;98130.22;2075850;28;20053;-73
2022/11/21 00:45:49;;;;;;;24.88;18.52;;;;;;;19.77;62.77;98135.97;2075357;28;19928;-73
2022/11/21 00:46:51;;;;;;;24.42;19.15;;;;;;;19.84;62.30;98144.00;2072788;28;20145;-73
2022/11/21 00:47:52;;;;;;;24.63;18.33;;;;;;;19.87;62.19;98140.84;2074463;28;20468;-73
2022/11/21 00:48:53;;;;;;;;;;;;;;;19.75;62.86;98137.22;2074932;28;20060;-73
2022/11/21 00:49:54;;;;;;;;;;;;;;;19.69;62.79;98146.19;2073035;28;19936;-73
2022/11/21 00:50:56;;;;;;;27.35;19.27;;;;;;;19.72;62.54;98149.25;2073304;28;19928;-73
2022/11/21 00:51:57;;;;;;;25.70;19.33;;;;;;;19.78;62.52;98145.69;2074242;28;20054;-74
2022/11/21 00:52:58;;;;;;;25.05;18.95;;;;;;;19.79;62.50;98138.44;2073540;28;20735;-73
2022/11/21 00:53:59;;;;;;;25.88;19.70;;;;;;;19.81;62.37;98144.44;2073952;28;20481;-74
2022/11/21 00:55:01;;;;;;;23.73;18.27;;;;;;;19.82;62.38;98133.44;2074524;28;20049;-73
2022/11/21 00:56:04;;;;;;;25.38;19.63;;;;;;;19.83;62.42;98140.44;2072767;28;20086;-73
2022/11/21 00:57:06;;;;;;;25.08;20.02;;;;;;;19.83;62.42;98137.75;2071212;28;20080;-73
2022/11/21 00:58:06;;;;;;;28.05;19.52;;;;;;;19.82;62.20;98127.22;2069716;28;21251;-73
2022/11/21 00:59:08;;;;;;;;;;;;;;;19.67;62.33;98126.75;2069123;28;20045;-73
2022/11/21 01:00:09;;;;;;;;;;;;;;;19.59;63.02;98122.47;2074158;28;19957;-73
2022/11/21 01:01:13;;;;;;;25.73;17.98;;;;;;;19.65;62.61;98121.59;2075002;28;19924;-74
2022/11/21 01:02:13;;;;;;;25.83;18.70;;;;;;;19.68;62.36;98131.94;2073382;28;20909;-73
2022/11/21 01:03:15;;;;;;;;;;;;;;;19.59;62.95;98130.56;2076284;28;20053;-73
2022/11/21 01:04:16;;;;;;;27.15;18.17;;;;;;;19.65;62.72;98135.03;2073955;28;19925;-73
2022/11/21 01:05:18;;;;;;;;;;;;;;;19.58;63.15;98131.56;2075322;28;20125;-73
2022/11/21 01:06:18;;;;;;;26.23;18.55;;;;;;;19.63;62.77;98139.81;2074014;28;19979;-73
2022/11/21 01:07:20;;;;;;;23.20;17.13;;;;;;;19.67;62.67;98135.69;2074783;28;20057;-73
2022/11/21 01:08:21;;;;;;;25.40;19.17;;;;;;;19.70;62.78;98135.22;2074224;28;20053;-73
2022/11/21 01:09:22;;;;;;;;;;;;;;;19.58;62.61;98136.97;2074968;28;20049;-73
2022/11/21 01:10:23;;;;;;;22.20;17.50;;;;;;;19.60;62.81;98130.31;2073369;28;19983;-73
2022/11/21 01:11:26;;;;;;;23.95;18.33;;;;;;;19.64;62.73;98134.22;2073810;28;20708;-73
2022/11/21 01:12:27;;;;;;;26.48;19.10;;;;;;;19.68;62.37;98141.88;2068248;28;20057;-73
2022/11/21 01:13:29;;;;;;;24.88;18.63;;;;;;;19.69;62.24;98146.19;2074125;28;20464;-73
2022/11/21 01:14:29;;;;;;;22.40;18.55;;;;;;;19.69;62.43;98143.50;2074138;28;20049;-73
2022/11/21 01:15:31;;;;;;;;;;;;;;;19.55;62.56;98146.28;2073579;28;20042;-73
2022/11/21 01:16:32;;;;;;;30.48;19.08;;;;;;;19.58;62.68;98143.16;2072441;28;19975;-73
2022/11/21 01:17:33;;;;;;;;;;;;;;;19.50;62.88;98142.63;2074191;28;20577;-73
2022/11/21 01:18:34;;;;;;;;;;;;;;;19.41;63.15;98145.59;2073075;28;20346;-72
2022/11/21 01:19:36;;;;;;;22.30;16.65;;;;;;;19.48;62.91;98142.03;2073820;28;20364;-73
2022/11/21 01:20:38;;;;;;;24.38;18.58;;;;;;;19.55;62.69;98148.97;2071873;28;20049;-73
2022/11/21 01:21:39;;;;;;;25.13;19.23;;;;;;;19.57;62.49;98149.59;2074124;28;20049;-73
2022/11/21 01:22:40;;;;;;;25.95;21.00;;;;;;;19.61;62.62;98152.66;2072534;28;20037;-73
2022/11/21 01:23:42;;;;;;;;;;;;;;;19.49;62.91;98151.75;2073027;28;20088;-73
2022/11/21 01:24:43;;;;;;;24.52;18.95;;;;;;;19.51;62.90;98152.34;2072448;28;20410;-74
2022/11/21 01:25:45;;;;;;;;;;;;;;;19.43;62.83;98151.56;2072734;28;20049;-73
2022/11/21 01:26:49;;;;;;;;;;;;;;;19.35;63.05;98157.22;2073874;28;19952;-73
2022/11/21 01:27:51;;;;;;;23.80;17.73;;;;;;;19.45;63.25;98153.25;2074485;28;19968;-73
2022/11/21 01:28:53;;;;;;;21.77;16.50;;;;;;;19.49;62.66;98151.75;2074379;28;20057;-73
2022/11/21 01:29:54;;;;;;;25.95;18.98;;;;;;;19.53;62.83;98155.63;2073587;28;20050;-73
2022/11/21 01:30:55;;;;;;;;;;;;;;;19.40;63.04;98157.41;2072691;28;20084;-73
2022/11/21 01:31:56;;;;;;;24.60;17.65;;;;;;;19.42;63.23;98154.50;2073069;28;19940;-73
2022/11/21 01:32:58;;;;;;;;;;;;;;;19.34;63.29;98155.59;2074429;28;20064;-73
2022/11/21 01:33:59;;;;;;;24.88;19.25;;;;;;;19.39;62.77;98155.75;2072979;28;20021;-73
2022/11/21 01:35:01;;;;;;;19.40;16.30;;;;;;;19.46;62.85;98157.56;2074092;28;20718;-73
2022/11/21 01:36:09;;;;;;;23.30;17.50;;;;;;;19.47;62.98;98157.31;2073098;28;20053;-73
2022/11/21 01:37:11;;;;;;;23.48;19.20;;;;;;;19.49;62.93;98157.13;2073825;28;20059;-73
2022/11/21 01:38:12;;;;;;;24.80;17.52;;;;;;;19.50;62.46;98164.13;2073437;28;20520;-73
2022/11/21 01:39:13;;;;;;;;;;;;;;;19.35;63.08;98148.34;2071839;28;20121;-74
2022/11/21 01:40:15;;;;;;;23.40;17.60;;;;;;;19.39;62.84;98154.94;2073930;28;19991;-73
2022/11/21 01:41:20;;;;;;;24.52;17.85;;;;;;;19.42;62.81;98155.31;2072549;28;20049;-74
2022/11/21 01:42:22;;;;;;;24.80;17.70;;;;;;;19.45;62.60;98153.25;2073072;28;20042;-73
2022/11/21 01:43:24;;;;;;;28.13;19.85;;;;;;;19.47;62.44;98151.13;2074089;28;20984;-73
2022/11/21 01:44:45;;;;;;;21.80;17.48;;;;;;;19.48;62.48;98148.25;2071189;28;20048;-73
2022/11/21 01:45:54;;;;;;;26.13;17.85;;;;;;;19.41;62.50;98144.78;2073640;28;20104;-73
2022/11/21 01:46:56;;;;;;;23.55;18.65;;;;;;;19.42;63.00;98149.13;2073232;28;20175;-73
2022/11/21 01:47:56;;;;;;;25.17;18.10;;;;;;;19.42;62.78;98147.25;2072749;28;20045;-73
2022/11/21 01:49:02;;;;;;;;;;;;;;;19.30;63.07;98143.63;2070731;28;20053;-73
2022/11/21 01:50:03;;;;;;;24.13;16.95;;;;;;;19.32;63.07;98138.84;2073018;28;20090;-73
2022/11/21 01:51:11;;;;;;;25.85;19.45;;;;;;;19.36;63.00;98142.75;2073701;28;20103;-72
2022/11/21 01:52:17;;;;;;;24.33;18.02;;;;;;;19.36;62.86;98142.75;2073767;28;20045;-73
2022/11/21 01:53:19;;;;;;;22.73;17.58;;;;;;;19.36;62.58;98142.75;2074997;28;20387;-73
2022/11/21 01:54:24;;;;;;;21.67;17.35;;;;;;;19.38;62.70;98137.97;2074603;28;20052;-73
2022/11/21 01:55:26;;;;;;;20.02;16.20;;;;;;;19.38;62.78;98143.34;2073448;28;20546;-73
2022/11/21 01:56:31;;;;;;;21.63;16.52;;;;;;;19.37;62.70;98143.59;2073402;28;20113;-73
2022/11/21 01:57:38;;;;;;;23.27;16.92;;;;;;;19.37;62.80;98143.59;2073566;28;20084;-73
2022/11/21 01:58:41;;;;;;;20.48;17.00;;;;;;;19.35;62.60;98138.41;2070126;28;20463;-73
2022/11/21 01:59:47;;;;;;;20.92;16.83;;;;;;;19.35;62.45;98143.78;2072740;28;20050;-73
2022/11/21 02:00:49;;;;;;;20.85;17.17;;;;;;;19.34;62.63;98144.84;2072944;28;20139;-73
2022/11/21 02:01:53;;;;;;;21.45;17.05;;;;;;;19.36;62.46;98145.44;2074462;28;20060;-72
2022/11/21 02:02:59;;;;;;;21.70;17.52;;;;;;;19.33;62.49;98145.88;2073989;28;20095;-73
2022/11/21 02:04:03;;;;;;;23.52;16.92;;;;;;;19.31;62.42;98139.91;2073371;28;20365;-73
2022/11/21 02:05:06;;;;;;;23.00;17.70;;;;;;;19.34;62.92;98141.34;2074854;28;20166;-73
2022/11/21 02:06:11;;;;;;;22.02;17.38;;;;;;;19.32;62.39;98138.03;2071409;28;20049;-73
2022/11/21 02:07:13;;;;;;;22.98;16.95;;;;;;;19.32;62.63;98136.16;2074125;28;20045;-73
2022/11/21 02:08:19;;;;;;;24.98;17.30;;;;;;;19.31;62.51;98136.41;2072298;28;20507;-73
2022/11/21 02:09:21;;;;;;;23.65;16.95;;;;;;;19.30;62.61;98146.31;2073211;28;20074;-73
2022/11/21 02:10:23;;;;;;;23.75;16.33;;;;;;;19.29;62.42;98139.28;2069808;28;20380;-73
2022/11/21 02:11:32;;;;;;;20.67;16.38;;;;;;;19.30;62.60;98140.94;2073436;28;20547;-73
2022/11/21 02:12:39;;;;;;;23.58;18.40;;;;;;;19.27;62.47;98146.75;2073539;28;20180;-73
2022/11/21 02:13:41;;;;;;;21.52;16.25;;;;;;;19.26;62.56;98147.81;2072924;28;20569;-73
2022/11/21 02:14:43;;;;;;;20.45;14.95;;;;;;;19.26;62.53;98152.38;2073973;28;20068;-73
2022/11/21 02:15:45;;;;;;;21.38;16.35;;;;;;;19.27;62.47;98156.69;2073191;28;20073;-73
2022/11/21 02:16:47;;;;;;;19.75;15.73;;;;;;;19.27;62.82;98159.38;2072670;28;20050;-73
2022/11/21 02:17:48;;;;;;;24.08;17.23;;;;;;;19.25;62.75;98161.44;2074334;28;20092;-73
2022/11/21 02:18:49;;;;;;;;;;;;;;;19.10;63.24;98156.41;2073031;28;20053;-72
2022/11/21 02:19:53;;;;;;;;;;;;;;;19.01;63.09;98171.16;2074733;28;19929;-73
2022/11/21 02:21:02;;;;;;;25.00;16.75;;;;;;;19.09;63.09;98170.91;2072840;28;19928;-74
2022/11/21 02:22:10;;;;;;;24.13;17.48;;;;;;;19.12;62.95;98159.72;2072669;28;20706;-73
2022/11/21 02:23:22;;;;;;;24.35;16.75;;;;;;;19.14;63.05;98171.06;2074112;28;20440;-73
2022/11/21 02:24:32;;;;;;;22.88;17.38;;;;;;;19.14;62.74;98163.00;2073358;28;20050;-73
2022/11/21 02:25:37;;;;;;;20.33;15.50;;;;;;;19.15;62.76;98165.47;2072371;28;20132;-73
2022/11/21 02:26:38;;;;;;;18.90;15.65;;;;;;;19.14;63.03;98171.06;2071388;28;20551;-73
2022/11/21 02:27:39;;;;;;;;;;;;;;;19.03;63.13;98182.50;2074717;28;20076;-73
2022/11/21 02:28:41;;;;;;;20.67;16.85;;;;;;;19.08;62.93;98180.81;2074644;28;19925;-74
2022/11/21 02:29:43;;;;;;;19.30;15.70;;;;;;;19.11;62.72;98182.22;2074104;28;21000;-74
2022/11/21 02:30:44;;;;;;;19.48;15.80;;;;;;;19.11;62.95;98180.41;2073184;28;20053;-73
2022/11/21 02:31:46;;;;;;;;;;;;;;;18.97;63.30;98174.28;2074086;28;20060;-73
2022/11/21 02:32:47;;;;;;;22.15;16.45;;;;;;;19.01;63.29;98173.84;2073985;28;20031;-73
2022/11/21 02:33:48;;;;;;;20.35;15.55;;;;;;;19.04;62.94;98170.72;2072679;28;20157;-73
2022/11/21 02:34:49;;;;;;;23.38;16.98;;;;;;;19.07;62.76;98167.59;2074007;28;20551;-72
2022/11/21 02:35:58;;;;;;;;;;;;;;;18.96;63.47;98171.81;2073836;28;20138;-72
2022/11/21 02:37:01;;;;;;;25.30;17.45;;;;;;;18.98;63.28;98170.53;2069894;28;19925;-73
2022/11/21 02:38:05;;;;;;;24.80;16.63;;;;;;;19.01;63.06;98171.97;2072232;28;20054;-73
2022/11/21 02:39:10;;;;;;;23.33;15.68;;;;;;;19.04;62.87;98163.47;2073153;28;20050;-74
2022/11/21 02:40:16;;;;;;;21.10;15.38;;;;;;;19.03;62.83;98156.47;2072902;28;20049;-73
2022/11/21 02:41:25;;;;;;;20.55;15.70;;;;;;;19.03;62.78;98144.88;2073119;28;20049;-73
2022/11/21 02:42:32;;;;;;;19.30;15.40;;;;;;;19.02;63.14;98151.28;2073846;28;20175;-73
2022/11/21 02:43:39;;;;;;;17.80;15.20;;;;;;;19.02;62.83;98153.97;2072088;28;20053;-73
2022/11/21 02:44:50;;;;;;;22.08;15.50;;;;;;;18.97;63.12;98147.41;2073626;28;20618;-73
2022/11/21 02:45:52;;;;;;;20.58;15.50;;;;;;;18.97;63.30;98147.41;2073130;28;20072;-73
2022/11/21 02:46:53;;;;;;;19.83;15.13;;;;;;;18.98;63.05;98132.91;2074252;28;20072;-73
2022/11/21 02:47:55;;;;;;;;;;;;;;;18.86;63.18;98133.81;2073552;28;20071;-73
2022/11/21 02:48:57;;;;;;;19.40;15.75;;;;;;;18.89;63.46;98122.66;2074223;28;19981;-73
2022/11/21 02:50:07;;;;;;;20.88;15.88;;;;;;;18.92;63.14;98117.66;2073720;28;20057;-72
2022/11/21 02:51:07;;;;;;;20.70;14.85;;;;;;;18.92;63.00;98115.00;2073984;28;20053;-73
2022/11/21 02:52:09;;;;;;;;;;;;;;;18.81;63.43;98115.69;2073122;28;20501;-73
2022/11/21 02:53:11;;;;;;;17.17;13.70;;;;;;;18.85;63.57;98110.69;2075894;28;19999;-73
2022/11/21 02:54:13;;;;;;;22.02;15.40;;;;;;;18.88;63.09;98100.31;2072759;28;20072;-73
2022/11/21 02:55:14;;;;;;;21.25;15.90;;;;;;;18.89;63.21;98102.00;2073444;28;20045;-73
2022/11/21 02:56:16;;;;;;;18.13;15.90;;;;;;;18.90;63.03;98103.63;2071488;28;20042;-73
2022/11/21 02:57:18;;;;;;;17.30;13.98;;;;;;;18.91;63.17;98102.56;2072710;28;20045;-73
2022/11/21 02:58:20;;;;;;;16.00;13.68;;;;;;;18.92;62.93;98108.78;2073484;28;20061;-72
2022/11/21 02:59:21;;;;;;;23.80;15.55;;;;;;;18.91;63.06;98104.44;2074116;28;20129;-73
2022/11/21 03:00:22;;;;;;;;;;;;;;;18.78;63.54;98104.53;2073983;28;20057;-73
2022/11/21 03:01:23;;;;;;;17.05;14.65;;;;;;;18.82;63.32;98109.25;2075219;28;19929;-73
2022/11/21 03:02:25;;;;;;;18.52;14.35;;;;;;;18.82;63.19;98095.84;2073974;28;20535;-73
2022/11/21 03:03:26;;;;;;;21.63;14.75;;;;;;;18.85;63.24;98100.75;2073830;28;20037;-74
2022/11/21 03:04:27;;;;;;;;;;;;;;;18.73;63.59;98102.50;2074511;28;20547;-73
2022/11/21 03:05:29;;;;;;;19.83;14.00;;;;;;;18.75;63.52;98097.75;2073026;28;19932;-73
2022/11/21 03:06:31;;;;;;;22.65;15.88;;;;;;;18.77;63.58;98098.34;2074306;28;20068;-73
2022/11/21 03:07:31;;;;;;;21.02;14.77;;;;;;;18.81;63.20;98102.25;2072978;28;20119;-73
2022/11/21 03:08:33;;;;;;;;;;;;;;;18.69;63.41;98106.63;2072616;28;20650;-73
2022/11/21 03:09:33;;;;;;;19.10;14.77;;;;;;;18.74;63.43;98104.97;2073311;28;19956;-73
2022/11/21 03:10:35;;;;;;;;;;;;;;;18.63;63.56;98102.94;2074483;28;20049;-73
2022/11/21 03:11:36;;;;;;;23.10;16.88;;;;;;;18.68;63.77;98105.00;2075468;28;19932;-73
2022/11/21 03:12:39;;;;;;;;;;;;;;;18.62;63.75;98108.56;2070869;28;20080;-73
2022/11/21 03:13:40;;;;;;;17.70;14.38;;;;;;;18.67;63.70;98103.34;2072801;28;20001;-73
2022/11/21 03:14:42;;;;;;;;;;;;;;;18.58;63.65;98112.69;2072580;28;20123;-73
2022/11/21 03:15:42;;;;;;;;;;;;;;;18.51;64.21;98115.44;2074576;28;20632;-74
2022/11/21 03:16:44;;;;;;;19.00;15.20;;;;;;;18.59;64.01;98114.34;2073035;28;19921;-73
2022/11/21 03:17:47;;;;;;;21.10;15.40;;;;;;;18.66;63.43;98115.13;2073240;28;20125;-73
2022/11/21 03:18:49;;;;;;;20.30;15.32;;;;;;;18.69;63.58;98123.59;2074271;28;20100;-73
2022/11/21 03:19:50;;;;;;;19.13;14.90;;;;;;;18.72;63.27;98120.47;2073302;28;20052;-73
2022/11/21 03:20:51;;;;;;;;;;;;;;;18.62;63.77;98116.59;2073766;28;20544;-73
2022/11/21 03:21:52;;;;;;;19.80;15.50;;;;;;;18.64;63.62;98112.66;2069600;28;19925;-73
2022/11/21 03:22:54;;;;;;;;;;;;;;;18.56;63.65;98120.97;2072573;28;20132;-73
2022/11/21 03:23:54;;;;;;;21.33;15.75;;;;;;;18.61;63.45;98121.16;2073662;28;20476;-73
2022/11/21 03:24:56;;;;;;;;;;;;;;;18.53;63.95;98118.72;2074351;28;20065;-73
2022/11/21 03:25:57;;;;;;;;;;;;;;;18.44;64.31;98118.16;2071475;28;20269;-73
2022/11/21 03:26:59;;;;;;;;;;;;;;;18.41;64.28;98115.88;2071834;28;20121;-73
2022/11/21 03:28:01;;;;;;;17.05;13.57;;;;;;;18.53;63.96;98119.53;2072954;28;19928;-73
2022/11/21 03:29:03;;;;;;;21.35;15.13;;;;;;;18.60;63.59;98124.06;2072903;28;20046;-73
2022/11/21 03:30:05;;;;;;;21.52;15.32;;;;;;;18.64;63.56;98119.91;2072789;28;20110;-73
2022/11/21 03:31:06;;;;;;;18.08;14.23;;;;;;;18.66;63.56;98128.56;2072710;28;20835;-73
2022/11/21 03:32:07;;;;;;;19.42;14.27;;;;;;;18.65;63.49;98119.69;2075484;28;20107;-73
2022/11/21 03:33:09;;;;;;;;;;;;;;;18.54;63.91;98128.44;2075995;28;20106;-73
2022/11/21 03:34:09;;;;;;;19.33;14.35;;;;;;;18.56;63.74;98123.66;2072756;28;19925;-73
2022/11/21 03:35:11;;;;;;;;;;;;;;;18.47;63.83;98130.31;2073720;28;20049;-73
2022/11/21 03:36:12;;;;;;;19.75;14.35;;;;;;;18.54;63.54;98123.88;2070925;28;20102;-73
2022/11/21 03:37:13;;;;;;;;;;;;;;;18.44;63.98;98122.69;2073497;28;20053;-73
2022/11/21 03:38:14;;;;;;;;;;;;;;;18.40;64.23;98121.47;2072646;28;20443;-73
2022/11/21 03:39:16;;;;;;;19.98;13.52;;;;;;;18.47;63.96;98117.72;2072134;28;19922;-73
2022/11/21 03:40:17;;;;;;;19.98;14.45;;;;;;;18.52;63.71;98117.88;2071443;28;20049;-73
2022/11/21 03:41:30;;;;;;;;;;;;;;;18.42;63.65;98114.88;2073003;28;20144;-73
2022/11/21 03:42:31;;;;;;;17.10;13.25;;;;;;;18.48;63.88;98111.31;2071514;28;20075;-73
2022/11/21 03:43:34;;;;;;;;;;;;;;;18.38;64.35;98108.25;2074721;28;20045;-73
2022/11/21 03:44:35;;;;;;;18.70;13.10;;;;;;;18.46;63.69;98110.69;2073024;28;19926;-73
2022/11/21 03:45:36;;;;;;;;;;;;;;;18.39;64.16;98107.25;2071445;28;20127;-73
2022/11/21 03:46:38;;;;;;;;;;;;;;;18.31;64.31;98115.53;2072273;28;20392;-72
2022/11/21 03:47:40;;;;;;;17.50;14.10;;;;;;;18.40;63.98;98111.56;2073431;28;19945;-73
2022/11/21 03:48:40;;;;;;;17.83;13.88;;;;;;;18.48;63.82;98111.31;2072508;28;20057;-73
2022/11/21 03:49:42;;;;;;;;;;;;;;;18.38;64.03;98105.56;2072639;28;20628;-73
2022/11/21 03:50:42;;;;;;;23.45;14.13;;;;;;;18.44;63.90;98096.69;2071522;28;20384;-73
2022/11/21 03:51:45;;;;;;;;;;;;;;;18.35;64.16;98103.31;2070512;28;20053;-73
2022/11/21 03:52:46;;;;;;;20.38;14.77;;;;;;;18.40;64.03;98105.38;2068535;28;19963;-73
2022/11/21 03:53:48;;;;;;;;;;;;;;;18.33;64.11;98113.47;2071235;28;20076;-73
2022/11/21 03:54:48;;;;;;;20.27;14.25;;;;;;;18.40;63.91;98106.19;2071395;28;19929;-73
2022/11/21 03:55:50;;;;;;;;;;;;;;;18.32;64.16;98111.81;2074605;28;20097;-73
2022/11/21 03:56:51;;;;;;;17.20;13.20;;;;;;;18.39;64.11;98111.78;2069811;28;19929;-73
2022/11/21 03:57:52;;;;;;;17.83;12.48;;;;;;;18.44;63.72;98117.31;2072249;28;20049;-73
2022/11/21 03:58:55;;;;;;;15.40;13.55;;;;;;;18.50;63.52;98129.91;2072562;28;20045;-73
2022/11/21 03:59:56;;;;;;;17.20;13.30;;;;;;;18.52;63.40;98125.94;2072386;28;20049;-73
2022/11/21 04:00:57;;;;;;;16.80;14.32;;;;;;;18.52;63.52;98127.81;2073084;28;20570;-73
2022/11/21 04:01:58;;;;;;;;;;;;;;;18.39;63.88;98122.53;2070168;28;20107;-73
2022/11/21 04:03:00;;;;;;;17.55;12.90;;;;;;;18.41;63.80;98115.06;2072951;28;19922;-73
2022/11/21 04:04:02;;;;;;;18.40;14.10;;;;;;;18.42;63.62;98120.22;2073573;28;20583;-73
2022/11/21 04:05:03;;;;;;;17.27;13.68;;;;;;;18.47;63.61;98114.19;2072333;28;20064;-72
2022/11/21 04:06:05;;;;;;;17.45;13.25;;;;;;;18.49;63.61;98122.88;2071831;28;20053;-72
2022/11/21 04:07:06;;;;;;;18.73;14.13;;;;;;;18.45;63.66;98117.13;2071152;28;20050;-73
2022/11/21 04:08:07;;;;;;;;;;;;;;;18.35;63.69;98113.25;2071533;28;20133;-73
2022/11/21 04:09:08;;;;;;;18.63;13.82;;;;;;;18.40;63.86;98118.78;2072464;28;20372;-73
2022/11/21 04:10:10;;;;;;;19.63;14.45;;;;;;;18.42;63.58;98122.09;2070541;28;20527;-73
2022/11/21 04:11:11;;;;;;;20.25;13.50;;;;;;;18.47;63.45;98119.56;2072096;28;20458;-73
2022/11/21 04:12:12;;;;;;;;;;;;;;;18.35;63.91;98129.34;2071183;28;20147;-74
2022/11/21 04:13:13;;;;;;;;;;;;;;;18.24;64.13;98130.84;2072913;28;20014;-73
2022/11/21 04:14:16;;;;;;;16.37;13.30;;;;;;;18.30;64.02;98124.63;2071875;28;19935;-73
2022/11/21 04:15:17;;;;;;;19.02;13.70;;;;;;;18.33;63.89;98118.00;2073473;28;20503;-73
2022/11/21 04:16:18;;;;;;;;;;;;;;;18.24;63.91;98118.25;2071958;28;20037;-72
2022/11/21 04:17:19;;;;;;;17.10;13.10;;;;;;;18.30;63.81;98122.78;2071903;28;19928;-73
2022/11/21 04:18:21;;;;;;;;;;;;;;;18.23;64.03;98129.22;2073039;28;20051;-73
2022/11/21 04:19:22;;;;;;;19.90;15.15;;;;;;;18.29;63.97;98118.44;2072445;28;19929;-73
2022/11/21 04:20:23;;;;;;;;;;;;;;;18.24;63.89;98123.59;2073202;28;20125;-73
2022/11/21 04:21:24;;;;;;;17.13;13.63;;;;;;;18.30;63.77;98113.88;2071640;28;20470;-73
2022/11/21 04:22:25;;;;;;;;;;;;;;;18.22;64.03;98111.44;2071720;28;20120;-73
2022/11/21 04:23:27;;;;;;;13.82;11.13;;;;;;;18.28;63.97;98110.59;2071655;28;20024;-73
2022/11/21 04:24:29;;;;;;;18.55;14.02;;;;;;;18.35;63.68;98110.56;2073290;28;20045;-73
2022/11/21 04:25:30;;;;;;;16.77;12.77;;;;;;;18.34;63.54;98103.56;2070709;28;20453;-73
2022/11/21 04:26:33;;;;;;;15.43;12.85;;;;;;;18.36;63.38;98096.09;2069507;28;20445;-73
2022/11/21 04:27:33;;;;;;;19.30;13.93;;;;;;;18.34;63.56;98090.94;2071557;28;20045;-73
2022/11/21 04:28:35;;;;;;;;;;;;;;;18.24;63.65;98096.75;2074080;28;20116;-72
2022/11/21 04:29:37;;;;;;;16.92;12.80;;;;;;;18.30;63.62;98095.09;2074148;28;19928;-73
2022/11/21 04:30:38;;;;;;;16.67;12.98;;;;;;;18.33;63.73;98097.38;2073138;28;20057;-73
2022/11/21 04:31:39;;;;;;;15.48;12.88;;;;;;;18.35;63.58;98089.91;2072960;28;20046;-72
2022/11/21 04:32:41;;;;;;;;;;;;;;;18.21;63.88;98089.13;2073249;28;20671;-73
2022/11/21 04:33:41;;;;;;;16.27;12.95;;;;;;;18.26;63.87;98093.88;2074084;28;19936;-73
2022/11/21 04:34:43;;;;;;;;;;;;;;;18.17;64.03;98087.94;2073249;28;20519;-72
2022/11/21 04:35:45;;;;;;;15.90;11.80;;;;;;;18.22;64.01;98096.19;2073000;28;21043;-72
2022/11/21 04:36:47;;;;;;;17.38;12.32;;;;;;;18.28;63.58;98105.22;2072872;28;20069;-72
2022/11/21 04:37:48;;;;;;;20.52;13.57;;;;;;;18.33;63.66;98101.88;2075008;28;20057;-73
2022/11/21 04:38:50;;;;;;;16.10;12.32;;;;;;;18.31;63.34;98100.25;2073282;28;20443;-72
2022/11/21 04:39:51;;;;;;;17.17;13.85;;;;;;;18.32;63.60;98101.06;2075298;28;20061;-72
2022/11/21 04:40:52;;;;;;;;;;;;;;;18.21;63.63;98109.78;2075354;28;20088;-72
2022/11/21 04:41:53;;;;;;;17.67;13.68;;;;;;;18.23;63.79;98107.72;2074160;28;20319;-72
2022/11/21 04:42:54;;;;;;;;;;;;;;;18.14;63.77;98107.16;2074144;28;20152;-72
2022/11/21 04:43:55;;;;;;;14.95;12.25;;;;;;;18.21;63.83;98112.47;2073258;28;19928;-73
2022/11/21 04:44:58;;;;;;;18.30;12.65;;;;;;;18.27;63.77;98114.31;2073332;28;20050;-72
2022/11/21 04:45:59;;;;;;;17.15;13.23;;;;;;;18.27;63.64;98117.81;2073312;28;20061;-72
2022/11/21 04:47:00;;;;;;;;;;;;;;;18.18;63.95;98115.59;2069926;28;20069;-73
2022/11/21 04:48:01;;;;;;;17.00;12.48;;;;;;;18.21;63.83;98109.78;2072538;28;20019;-72
2022/11/21 04:49:03;;;;;;;16.20;12.98;;;;;;;18.23;63.56;98111.22;2074955;28;20527;-72
2022/11/21 04:50:05;;;;;;;15.57;11.95;;;;;;;18.26;63.66;98102.75;2074298;28;20486;-73
2022/11/21 04:51:07;;;;;;;13.77;11.38;;;;;;;18.28;63.79;98113.28;2072715;28;20062;-72
2022/11/21 04:52:09;;;;;;;15.10;11.95;;;;;;;18.28;63.43;98107.91;2074239;28;20061;-72
2022/11/21 04:53:10;;;;;;;18.02;13.20;;;;;;;18.29;63.49;98107.69;2073595;28;20075;-72
2022/11/21 04:54:11;;;;;;;;;;;;;;;18.17;64.02;98114.78;2074738;28;20140;-72
2022/11/21 04:55:12;;;;;;;16.02;12.82;;;;;;;18.20;63.80;98121.59;2076048;28;19983;-73